Time;durP1;ratioP1;P1;durP2;ratioP2;P2;SDS_P1;SDS_P2;PMS_P1;PMS_P2;Temp;Humidity;BMP_temperature;BMP_pressure;BME280_temperature;BME280_humidity;BME280_pressure;Samples;Min_cycle;Max_cycle;Signal;HPM_P1;HPM_P2
2022/03/26 00:00:01;;;;;;;133.20;78.25;;;7.10;76.60;;;;;;5034413;28;20044;-82
2022/03/26 00:02:28;;;;;;;138.75;78.93;;;7.10;77.00;;;;;;5051062;28;20072;-80
2022/03/26 00:04:53;;;;;;;148.40;81.55;;;7.00;77.00;;;;;;5018355;28;20057;-80
2022/03/26 00:07:19;;;;;;;145.57;84.00;;;7.00;77.20;;;;;;5034530;28;20087;-80
2022/03/26 00:09:45;;;;;;;147.52;84.57;;;7.00;77.50;;;;;;5018118;28;20045;-81
2022/03/26 00:12:13;;;;;;;140.35;79.93;;;7.00;77.70;;;;;;5034401;28;20043;-81
2022/03/26 00:14:38;;;;;;;145.60;84.25;;;7.00;77.60;;;;;;5034622;28;20378;-81
2022/03/26 00:17:04;;;;;;;141.13;79.93;;;6.90;77.70;;;;;;5017728;28;20048;-81
2022/03/26 00:19:30;;;;;;;156.32;86.88;;;6.90;77.80;;;;;;5037086;28;20073;-80
2022/03/26 00:21:56;;;;;;;151.20;82.38;;;6.90;77.80;;;;;;5038172;28;20490;-80
2022/03/26 00:24:21;;;;;;;152.55;85.18;;;6.80;77.90;;;;;;5037777;28;20124;-80
2022/03/26 00:26:48;;;;;;;159.60;88.47;;;6.80;78.10;;;;;;5054299;28;20037;-80
2022/03/26 00:29:13;;;;;;;157.63;87.57;;;6.80;78.10;;;;;;5037877;28;20060;-80
2022/03/26 00:31:39;;;;;;;151.85;84.70;;;6.80;78.30;;;;;;5056304;28;20037;-80
2022/03/26 00:34:09;;;;;;;147.25;85.57;;;6.80;78.30;;;;;;5040929;28;20416;-80
2022/03/26 00:36:35;;;;;;;153.50;85.32;;;6.70;78.30;;;;;;5057721;28;20405;-81
2022/03/26 00:39:02;;;;;;;144.32;84.35;;;6.80;78.50;;;;;;5057534;28;20382;-80
2022/03/26 00:41:28;;;;;;;146.15;81.60;;;6.80;78.60;;;;;;5041346;28;20041;-81
2022/03/26 00:43:55;;;;;;;152.60;84.70;;;6.70;78.60;;;;;;5040882;28;20072;-81
2022/03/26 00:46:21;;;;;;;154.93;86.93;;;6.70;78.60;;;;;;5057292;28;20036;-81
2022/03/26 00:48:48;;;;;;;142.68;81.35;;;6.70;78.60;;;;;;5040823;28;20045;-80
2022/03/26 00:51:15;;;;;;;160.00;87.85;;;6.70;78.70;;;;;;5041230;28;20374;-81
2022/03/26 00:53:48;;;;;;;142.55;81.82;;;6.70;78.70;;;;;;5057744;28;20131;-81
2022/03/26 00:56:14;;;;;;;145.73;82.57;;;6.60;78.70;;;;;;5057411;28;20044;-81
2022/03/26 00:58:40;;;;;;;141.13;79.35;;;6.60;79.00;;;;;;5057130;28;20044;-81
2022/03/26 01:01:07;;;;;;;148.68;79.18;;;6.60;79.00;;;;;;5062650;28;20086;-81
2022/03/26 01:03:33;;;;;;;140.57;79.20;;;6.60;78.90;;;;;;5077354;28;20051;-81
2022/03/26 01:05:59;;;;;;;146.13;81.53;;;6.60;78.80;;;;;;5060655;28;20040;-81
2022/03/26 01:08:25;;;;;;;146.55;82.20;;;6.60;78.90;;;;;;5060360;28;20051;-81
2022/03/26 01:10:51;;;;;;;143.43;79.53;;;6.60;78.90;;;;;;5060249;28;20035;-81
2022/03/26 01:13:16;;;;;;;150.35;81.65;;;6.60;78.80;;;;;;5076988;28;20123;-81
2022/03/26 01:15:43;;;;;;;144.50;82.68;;;6.50;78.80;;;;;;5060393;28;20051;-81
2022/03/26 01:18:09;;;;;;;146.07;82.35;;;6.50;78.90;;;;;;5060100;28;20043;-81
2022/03/26 01:20:36;;;;;;;141.30;79.65;;;6.50;79.00;;;;;;5060472;28;20040;-81
2022/03/26 01:23:02;;;;;;;146.07;81.80;;;6.50;79.20;;;;;;5060012;28;20036;-81
2022/03/26 01:25:28;;;;;;;148.90;82.60;;;6.50;79.10;;;;;;5076835;28;20071;-81
2022/03/26 01:27:53;;;;;;;140.15;78.60;;;6.50;79.00;;;;;;5076500;28;20035;-81
2022/03/26 01:30:19;;;;;;;153.02;82.30;;;6.50;79.20;;;;;;5060092;28;20048;-81
2022/03/26 01:32:46;;;;;;;142.70;80.75;;;6.60;79.20;;;;;;5060085;28;20059;-81
2022/03/26 01:35:13;;;;;;;157.00;84.72;;;6.50;79.30;;;;;;5059786;28;20040;-81
2022/03/26 01:37:38;;;;;;;154.90;84.35;;;6.50;79.20;;;;;;5076669;28;20043;-81
2022/03/26 01:40:06;;;;;;;143.07;79.88;;;6.50;79.40;;;;;;5076252;28;20403;-80
2022/03/26 01:42:32;;;;;;;153.80;83.25;;;6.50;79.40;;;;;;5059705;28;20042;-80
2022/03/26 01:44:58;;;;;;;137.20;80.65;;;6.40;79.10;;;;;;5076270;28;20040;-80
2022/03/26 01:47:23;;;;;;;147.85;81.72;;;6.40;79.50;;;;;;5076418;28;20040;-81
2022/03/26 01:49:51;;;;;;;145.45;77.65;;;6.40;79.40;;;;;;5059567;28;20123;-81
2022/03/26 01:52:17;;;;;;;147.45;80.65;;;6.30;79.50;;;;;;5076129;28;20105;-80
2022/03/26 01:54:44;;;;;;;135.93;75.55;;;6.30;79.50;;;;;;5059742;28;20071;-80
2022/03/26 01:57:13;;;;;;;138.95;77.85;;;6.20;79.70;;;;;;5059235;28;20036;-80
2022/03/26 01:59:39;;;;;;;141.10;75.80;;;6.10;79.70;;;;;;5059770;28;20384;-80
2022/03/26 02:02:06;;;;;;;138.20;76.60;;;6.10;79.70;;;;;;5076165;28;20039;-80
2022/03/26 02:04:34;;;;;;;133.40;74.95;;;6.10;79.80;;;;;;5075829;28;20068;-81
2022/03/26 02:07:04;;;;;;;150.35;81.07;;;6.10;79.80;;;;;;5076052;28;20035;-80
2022/03/26 02:09:36;;;;;;;139.77;78.40;;;6.10;79.60;;;;;;5075752;28;20488;-81
2022/03/26 02:12:20;;;;;;;147.60;79.97;;;6.10;79.70;;;;;;5059165;28;20472;-80
2022/03/26 02:14:46;;;;;;;150.13;80.60;;;6.10;80.20;;;;;;5075708;28;20048;-81
2022/03/26 02:17:12;;;;;;;147.55;79.10;;;6.10;80.10;;;;;;5075666;28;20509;-80
2022/03/26 02:19:38;;;;;;;146.73;80.15;;;6.00;80.00;;;;;;5058937;28;20048;-81
2022/03/26 02:22:04;;;;;;;149.98;81.43;;;6.00;79.60;;;;;;5075492;28;20044;-81
2022/03/26 02:24:30;;;;;;;149.50;80.95;;;6.00;80.50;;;;;;5059071;28;20495;-81
2022/03/26 02:26:56;;;;;;;154.40;80.25;;;5.90;80.20;;;;;;5058886;28;20051;-81
2022/03/26 02:29:21;;;;;;;167.75;86.30;;;5.90;80.60;;;;;;5075587;28;20442;-81
2022/03/26 02:31:47;;;;;;;166.60;87.97;;;5.90;80.70;;;;;;5075221;28;20036;-82
2022/03/26 02:34:13;;;;;;;165.90;87.65;;;5.80;80.20;;;;;;5075482;28;20412;-81
2022/03/26 02:36:38;;;;;;;184.35;92.90;;;5.80;81.00;;;;;;5075268;28;20039;-81
2022/03/26 02:39:05;;;;;;;179.90;90.68;;;5.80;80.70;;;;;;5075161;28;20157;-81
2022/03/26 02:41:33;;;;;;;174.25;89.93;;;5.80;81.60;;;;;;5058398;28;20036;-81
2022/03/26 02:43:58;;;;;;;176.52;87.88;;;5.70;81.70;;;;;;5058812;28;20500;-81
2022/03/26 02:46:24;;;;;;;170.80;89.78;;;5.70;81.00;;;;;;5058340;28;20075;-81
2022/03/26 02:48:50;;;;;;;183.15;92.60;;;5.70;82.20;;;;;;5058795;28;20032;-81
2022/03/26 02:51:16;;;;;;;181.30;88.20;;;5.70;82.10;;;;;;5041970;28;20484;-81
2022/03/26 02:53:41;;;;;;;169.05;84.07;;;5.60;82.40;;;;;;5075099;28;20044;-81
2022/03/26 02:56:07;;;;;;;163.45;86.03;;;5.60;83.40;;;;;;5075333;28;20043;-81
2022/03/26 02:58:33;;;;;;;173.20;86.32;;;5.60;82.70;;;;;;5058371;28;20439;-81
2022/03/26 03:00:58;;;;;;;181.32;87.30;;;5.60;82.70;;;;;;5075009;28;20036;-81
2022/03/26 03:03:24;;;;;;;180.38;89.85;;;5.60;83.00;;;;;;5058608;28;20039;-81
2022/03/26 03:05:50;;;;;;;184.10;93.13;;;5.50;83.30;;;;;;5041464;28;20515;-81
2022/03/26 03:08:16;;;;;;;184.00;92.70;;;5.50;83.70;;;;;;5075212;28;20396;-81
2022/03/26 03:10:42;;;;;;;204.68;95.95;;;5.50;83.40;;;;;;5074917;28;20032;-81
2022/03/26 03:13:09;;;;;;;183.13;92.15;;;5.50;83.90;;;;;;5058311;28;20032;-81
2022/03/26 03:15:35;;;;;;;185.82;92.35;;;5.50;83.70;;;;;;5057998;28;20170;-81
2022/03/26 03:18:01;;;;;;;191.75;92.32;;;5.50;83.90;;;;;;5074859;28;20101;-81
2022/03/26 03:20:26;;;;;;;175.25;87.05;;;5.40;83.80;;;;;;5074673;28;20047;-81
2022/03/26 03:22:52;;;;;;;160.93;79.05;;;5.40;83.40;;;;;;5074829;28;20044;-81
2022/03/26 03:25:18;;;;;;;152.48;80.60;;;5.40;83.70;;;;;;5074680;28;20076;-81
2022/03/26 03:27:43;;;;;;;154.30;79.03;;;5.30;84.00;;;;;;5058221;28;20090;-81
2022/03/26 03:30:10;;;;;;;149.82;76.65;;;5.30;84.00;;;;;;5074970;28;20036;-81
2022/03/26 03:32:36;;;;;;;148.73;78.90;;;5.30;84.30;;;;;;5058143;28;20056;-81
2022/03/26 03:35:03;;;;;;;159.95;81.75;;;5.20;84.30;;;;;;5074874;28;20388;-81
2022/03/26 03:37:29;;;;;;;158.23;81.22;;;5.20;84.60;;;;;;5074734;28;20488;-81
2022/03/26 03:39:55;;;;;;;167.00;82.20;;;5.20;84.40;;;;;;5057986;28;20055;-81
2022/03/26 03:42:20;;;;;;;160.52;83.00;;;5.20;84.30;;;;;;5041360;28;20036;-81
2022/03/26 03:44:46;;;;;;;161.00;82.93;;;5.10;84.30;;;;;;5074601;28;20040;-81
2022/03/26 03:47:12;;;;;;;169.68;83.82;;;5.20;84.70;;;;;;5024694;28;20119;-81
2022/03/26 03:49:37;;;;;;;183.93;88.50;;;5.20;85.10;;;;;;5074625;28;20083;-80
2022/03/26 03:52:04;;;;;;;179.25;85.03;;;5.10;85.90;;;;;;5058005;28;20055;-81
2022/03/26 03:54:30;;;;;;;158.77;81.60;;;5.10;85.50;;;;;;5060840;28;20069;-80
2022/03/26 03:56:56;;;;;;;161.63;80.60;;;5.00;86.30;;;;;;5078271;28;20126;-80
2022/03/26 03:59:22;;;;;;;151.55;76.18;;;5.10;85.40;;;;;;5061735;28;20047;-80
2022/03/26 04:01:48;;;;;;;163.30;80.25;;;5.10;85.80;;;;;;5078264;28;20039;-80
2022/03/26 04:04:13;;;;;;;160.07;81.55;;;5.00;87.10;;;;;;5061470;28;20127;-80
2022/03/26 04:06:39;;;;;;;166.95;82.15;;;5.00;86.20;;;;;;5061504;28;20073;-80
2022/03/26 04:09:05;;;;;;;177.68;83.10;;;5.00;86.20;;;;;;5061732;28;20075;-80
2022/03/26 04:11:30;;;;;;;158.88;81.13;;;5.00;86.10;;;;;;5078360;28;20047;-80
2022/03/26 04:13:56;;;;;;;166.98;81.05;;;5.00;86.20;;;;;;5078172;28;20422;-80
2022/03/26 04:16:23;;;;;;;165.82;84.38;;;5.00;86.20;;;;;;5077980;28;20063;-80
2022/03/26 04:18:49;;;;;;;187.68;89.57;;;5.10;86.30;;;;;;5077799;28;20093;-80
2022/03/26 04:21:16;;;;;;;167.13;84.22;;;5.10;86.30;;;;;;5077830;28;20047;-80
2022/03/26 04:23:42;;;;;;;152.77;75.38;;;5.00;86.40;;;;;;5077874;28;20043;-80
2022/03/26 04:26:09;;;;;;;161.95;83.57;;;5.00;86.50;;;;;;5061070;28;20036;-80
2022/03/26 04:28:35;;;;;;;165.88;82.07;;;5.10;86.70;;;;;;5045014;28;20039;-80
2022/03/26 04:31:01;;;;;;;147.63;76.05;;;5.10;86.60;;;;;;5077731;28;20039;-80
2022/03/26 04:33:27;;;;;;;172.07;83.53;;;5.10;86.40;;;;;;5077183;28;20404;-80
2022/03/26 04:35:53;;;;;;;150.23;76.35;;;5.10;86.50;;;;;;5077548;28;20136;-80
2022/03/26 04:38:19;;;;;;;141.98;73.03;;;5.10;86.40;;;;;;5077500;28;20051;-80
2022/03/26 04:40:45;;;;;;;172.32;83.05;;;5.20;86.70;;;;;;5077748;28;20036;-79
2022/03/26 04:43:11;;;;;;;154.65;75.80;;;5.10;86.60;;;;;;5077797;28;20211;-80
2022/03/26 04:45:37;;;;;;;174.35;86.82;;;5.20;86.70;;;;;;5077351;28;20480;-80
2022/03/26 04:48:03;;;;;;;151.70;77.43;;;5.20;86.70;;;;;;5077417;28;20051;-80
2022/03/26 04:50:29;;;;;;;151.00;75.75;;;5.30;86.70;;;;;;5077640;28;20040;-80
2022/03/26 04:52:55;;;;;;;156.88;76.13;;;5.30;86.70;;;;;;5044419;28;20511;-80
2022/03/26 04:55:20;;;;;;;170.80;82.20;;;5.20;86.80;;;;;;5060839;28;20051;-81
2022/03/26 04:57:48;;;;;;;161.95;79.88;;;5.20;86.90;;;;;;5077459;28;20127;-81
2022/03/26 05:00:16;;;;;;;160.07;80.90;;;5.10;87.20;;;;;;5077116;28;20499;-81
2022/03/26 05:02:42;;;;;;;159.52;79.57;;;5.10;86.90;;;;;;5077104;28;20035;-81
2022/03/26 05:05:13;;;;;;;159.13;80.78;;;5.10;86.70;;;;;;5076792;28;20040;-81
2022/03/26 05:07:48;;;;;;;160.80;79.40;;;5.10;86.90;;;;;;5077091;28;20046;-81
2022/03/26 05:10:21;;;;;;;158.00;78.82;;;5.00;87.10;;;;;;5077090;28;20048;-81
2022/03/26 05:12:49;;;;;;;147.00;76.32;;;5.00;87.00;;;;;;5076986;28;20122;-80
2022/03/26 05:15:16;;;;;;;168.38;81.47;;;5.00;87.00;;;;;;5077085;28;20052;-80
2022/03/26 05:17:42;;;;;;;154.32;77.65;;;5.00;86.80;;;;;;5060171;28;20549;-81
2022/03/26 05:20:09;;;;;;;175.43;82.80;;;5.00;86.70;;;;;;5060080;28;20043;-81
2022/03/26 05:22:35;;;;;;;164.95;85.13;;;5.10;87.00;;;;;;5059982;28;20404;-81
2022/03/26 05:25:01;;;;;;;169.52;82.35;;;5.10;86.90;;;;;;5076703;28;20051;-82
2022/03/26 05:27:27;;;;;;;179.68;87.22;;;5.10;87.20;;;;;;5026813;28;20028;-82
2022/03/26 05:29:53;;;;;;;174.30;83.38;;;5.10;86.90;;;;;;5076863;28;20047;-82
2022/03/26 05:32:19;;;;;;;157.77;80.03;;;5.20;86.90;;;;;;5076167;28;20063;-82
2022/03/26 05:34:45;;;;;;;191.90;89.53;;;5.20;87.00;;;;;;5059943;28;20052;-81
2022/03/26 05:37:11;;;;;;;186.02;88.57;;;5.30;87.10;;;;;;5076428;28;20051;-81
2022/03/26 05:39:37;;;;;;;172.48;85.97;;;5.30;87.10;;;;;;5059897;28;20377;-81
2022/03/26 05:42:03;;;;;;;181.13;86.10;;;5.40;86.90;;;;;;5076366;28;20047;-81
2022/03/26 05:44:29;;;;;;;177.43;88.13;;;5.40;87.10;;;;;;5059702;28;20036;-81
2022/03/26 05:46:54;;;;;;;177.23;83.32;;;5.50;86.80;;;;;;5076244;28;20042;-81
2022/03/26 05:49:21;;;;;;;150.18;78.05;;;5.50;87.00;;;;;;5076532;28;20040;-81
2022/03/26 05:51:47;;;;;;;181.18;87.65;;;5.50;87.30;;;;;;5059725;28;20047;-81
2022/03/26 05:54:14;;;;;;;177.48;86.80;;;5.60;87.40;;;;;;5059613;28;20137;-81
2022/03/26 05:56:40;;;;;;;193.65;92.35;;;5.60;87.20;;;;;;5059577;28;20395;-81
2022/03/26 05:59:09;;;;;;;164.85;84.60;;;5.60;87.50;;;;;;5075939;28;20040;-81
2022/03/26 06:01:36;;;;;;;197.52;93.40;;;5.60;87.50;;;;;;5059408;28;20081;-81
2022/03/26 06:04:02;;;;;;;172.27;84.38;;;5.70;87.40;;;;;;5059308;28;20088;-81
2022/03/26 06:06:28;;;;;;;179.45;86.43;;;5.70;87.30;;;;;;5059426;28;20450;-81
2022/03/26 06:08:54;;;;;;;187.52;90.40;;;5.70;87.60;;;;;;5059205;28;20082;-80
2022/03/26 06:11:20;;;;;;;177.10;86.72;;;5.70;87.70;;;;;;5059132;28;20051;-81
2022/03/26 06:13:45;;;;;;;182.35;88.40;;;5.80;88.10;;;;;;5059443;28;20066;-80
2022/03/26 06:16:11;;;;;;;160.95;82.97;;;5.80;87.80;;;;;;5074928;28;20472;-80
2022/03/26 06:18:38;;;;;;;168.27;86.47;;;5.80;87.90;;;;;;5075651;28;20048;-81
2022/03/26 06:21:06;;;;;;;144.43;73.00;;;5.80;87.80;;;;;;5026215;28;20075;-81
2022/03/26 06:23:32;;;;;;;178.25;89.07;;;5.90;87.80;;;;;;5075882;28;20072;-80
2022/03/26 06:25:58;;;;;;;153.07;79.40;;;6.00;87.40;;;;;;5059024;28;20434;-80
2022/03/26 06:28:24;;;;;;;164.15;84.90;;;6.00;87.50;;;;;;5075552;28;20032;-80
2022/03/26 06:30:51;;;;;;;171.38;86.07;;;6.10;87.50;;;;;;5058872;28;20152;-80
2022/03/26 06:33:18;;;;;;;159.88;83.03;;;6.10;87.40;;;;;;5072089;28;20055;-81
2022/03/26 06:35:45;;;;;;;144.05;75.65;;;6.20;87.60;;;;;;5055434;28;20509;-80
2022/03/26 06:38:11;;;;;;;173.55;86.43;;;6.30;87.60;;;;;;5072289;28;20124;-81
2022/03/26 06:40:38;;;;;;;163.32;83.45;;;6.30;88.00;;;;;;5071840;28;20044;-81
2022/03/26 06:43:05;;;;;;;167.13;84.10;;;6.40;87.60;;;;;;5055271;28;20508;-81
2022/03/26 06:45:30;;;;;;;162.45;81.82;;;6.50;87.80;;;;;;5071824;28;20567;-81
2022/03/26 06:47:56;;;;;;;162.25;81.93;;;6.50;88.00;;;;;;5071827;28;20040;-80
2022/03/26 06:50:22;;;;;;;154.60;80.35;;;6.50;87.80;;;;;;5038395;28;20070;-81
2022/03/26 06:52:48;;;;;;;119.95;62.20;;;6.60;87.90;;;;;;5054067;28;20536;-81
2022/03/26 06:55:14;;;;;;;158.73;80.20;;;6.70;87.70;;;;;;5054402;28;20041;-81
2022/03/26 06:57:41;;;;;;;143.93;77.70;;;6.70;87.70;;;;;;5055117;28;20046;-81
2022/03/26 07:00:09;;;;;;;140.30;75.22;;;6.80;87.60;;;;;;5071506;28;20086;-81
2022/03/26 07:02:36;;;;;;;128.85;71.00;;;6.90;87.50;;;;;;5054940;28;20090;-81
2022/03/26 07:05:03;;;;;;;138.27;71.80;;;7.00;87.50;;;;;;5055139;28;20086;-81
2022/03/26 07:07:29;;;;;;;144.75;77.78;;;7.10;87.50;;;;;;5054738;28;20044;-81
2022/03/26 07:09:55;;;;;;;150.73;81.22;;;7.10;87.30;;;;;;5054769;28;20051;-80
2022/03/26 07:12:21;;;;;;;131.35;70.45;;;7.20;87.40;;;;;;5038891;28;20040;-80
2022/03/26 07:14:46;;;;;;;139.60;74.78;;;7.30;87.40;;;;;;5055060;28;20508;-81
2022/03/26 07:17:12;;;;;;;157.82;79.93;;;7.40;87.40;;;;;;5071533;28;20186;-81
2022/03/26 07:19:38;;;;;;;159.05;83.60;;;7.50;87.40;;;;;;5071477;28;20068;-80
2022/03/26 07:22:04;;;;;;;154.63;78.85;;;7.60;87.50;;;;;;5053542;28;20037;-80
2022/03/26 07:24:29;;;;;;;159.02;81.63;;;7.70;87.50;;;;;;5053649;28;20123;-80
2022/03/26 07:26:55;;;;;;;147.35;77.80;;;7.80;87.50;;;;;;5054702;28;20040;-81
2022/03/26 07:29:21;;;;;;;154.05;77.25;;;7.90;87.70;;;;;;5042269;28;20051;-80
2022/03/26 07:31:46;;;;;;;132.93;70.75;;;8.00;88.00;;;;;;5058823;28;20047;-81
2022/03/26 07:34:13;;;;;;;149.73;74.28;;;8.10;87.70;;;;;;5058715;28;20088;-81
2022/03/26 07:36:39;;;;;;;137.32;71.50;;;8.20;87.80;;;;;;5075367;28;20050;-81
2022/03/26 07:39:05;;;;;;;135.43;69.95;;;8.30;87.90;;;;;;5075275;28;20040;-81
2022/03/26 07:41:30;;;;;;;129.18;70.63;;;8.40;87.80;;;;;;5075695;28;20086;-81
2022/03/26 07:43:56;;;;;;;129.05;68.50;;;8.50;87.70;;;;;;5058924;28;20086;-81
2022/03/26 07:46:22;;;;;;;118.13;64.07;;;8.70;87.60;;;;;;5075213;28;20481;-81
2022/03/26 07:48:48;;;;;;;116.22;65.10;;;8.80;87.30;;;;;;5058570;28;20043;-81
2022/03/26 07:51:14;;;;;;;122.50;69.75;;;8.90;87.00;;;;;;5075420;28;20206;-81
2022/03/26 07:53:40;;;;;;;113.60;63.72;;;9.00;86.60;;;;;;5075286;28;20453;-81
2022/03/26 07:56:06;;;;;;;124.50;66.45;;;9.10;86.30;;;;;;5075315;28;20087;-81
2022/03/26 07:58:31;;;;;;;113.65;62.17;;;9.30;85.90;;;;;;5041960;28;20404;-81
2022/03/26 08:00:57;;;;;;;108.15;59.17;;;9.30;85.50;;;;;;5074960;28;20120;-79
2022/03/26 08:03:24;;;;;;;110.63;61.65;;;9.40;85.10;;;;;;5041704;28;20040;-80
2022/03/26 08:05:50;;;;;;;108.60;61.10;;;9.50;84.60;;;;;;5058324;28;20512;-79
2022/03/26 08:08:16;;;;;;;111.68;59.95;;;9.60;84.30;;;;;;5074625;28;20037;-79
2022/03/26 08:10:42;;;;;;;105.88;62.05;;;9.70;83.70;;;;;;5058358;28;20052;-80
2022/03/26 08:13:08;;;;;;;100.20;55.33;;;9.80;82.60;;;;;;5075002;28;20070;-81
2022/03/26 08:15:33;;;;;;;97.18;56.25;;;9.90;82.10;;;;;;5058986;28;20063;-80
2022/03/26 08:18:02;;;;;;;109.53;61.33;;;10.00;81.50;;;;;;5058003;28;20040;-79
2022/03/26 08:20:29;;;;;;;109.97;58.33;;;10.10;81.00;;;;;;5058024;28;20059;-81
2022/03/26 08:22:55;;;;;;;109.25;63.38;;;10.20;81.50;;;;;;5074502;28;20033;-81
2022/03/26 08:28:07;;;;;;;91.70;52.63;;;10.40;81.20;;;;;;5060594;28;20041;-80
2022/03/26 08:30:33;;;;;;;94.75;53.45;;;10.40;80.50;;;;;;5058208;28;20045;-81
2022/03/26 08:33:02;;;;;;;97.60;54.95;;;10.50;79.50;;;;;;5075824;28;20048;-81
2022/03/26 08:35:36;;;;;;;93.00;52.10;;;10.60;79.40;;;;;;5074520;28;20074;-81
2022/03/26 08:38:02;;;;;;;96.55;55.55;;;10.70;79.20;;;;;;5074654;28;20090;-81
2022/03/26 08:40:27;;;;;;;91.75;52.70;;;10.90;78.80;;;;;;5073585;28;20045;-79
2022/03/26 08:42:53;;;;;;;94.03;51.88;;;11.00;78.80;;;;;;5074096;28;20036;-79
2022/03/26 08:45:19;;;;;;;86.80;50.97;;;11.10;78.50;;;;;;5057433;28;20040;-79
2022/03/26 08:47:48;;;;;;;80.07;46.88;;;11.20;78.20;;;;;;5074380;28;20044;-79
2022/03/26 08:50:14;;;;;;;80.40;48.13;;;11.40;77.30;;;;;;5074304;28;20041;-79
2022/03/26 08:52:39;;;;;;;84.95;49.75;;;11.50;77.00;;;;;;5041169;28;20393;-79
2022/03/26 08:55:08;;;;;;;73.65;45.70;;;11.60;76.40;;;;;;5041066;28;20489;-80
2022/03/26 08:57:34;;;;;;;66.80;40.70;;;11.70;76.00;;;;;;5057567;28;20048;-81
2022/03/26 09:00:00;;;;;;;70.63;39.42;;;11.80;75.20;;;;;;5073872;28;20097;-80
2022/03/26 09:02:25;;;;;;;59.90;37.28;;;12.00;74.40;;;;;;5057126;28;20043;-80
2022/03/26 09:04:52;;;;;;;62.75;37.55;;;12.00;74.00;;;;;;5057146;28;20043;-80
2022/03/26 09:07:18;;;;;;;61.30;38.05;;;12.20;74.00;;;;;;5074063;28;20389;-81
2022/03/26 09:09:43;;;;;;;59.13;36.88;;;12.30;74.00;;;;;;5073581;28;20040;-81
2022/03/26 09:12:09;;;;;;;61.78;37.20;;;12.40;73.60;;;;;;5023932;28;20044;-81
2022/03/26 09:14:35;;;;;;;58.35;35.58;;;12.40;73.70;;;;;;5073633;28;20048;-81
2022/03/26 09:17:01;;;;;;;56.38;34.05;;;12.50;73.50;;;;;;5073504;28;20044;-81
2022/03/26 09:19:27;;;;;;;54.03;35.33;;;12.50;73.40;;;;;;5056778;28;20123;-81
2022/03/26 09:21:52;;;;;;;56.05;34.55;;;12.60;73.50;;;;;;5073455;28;20044;-81
2022/03/26 09:24:18;;;;;;;53.97;33.72;;;12.70;73.50;;;;;;5073703;28;20044;-81
2022/03/26 09:26:44;;;;;;;54.63;34.35;;;12.80;73.50;;;;;;5073370;28;20067;-81
2022/03/26 09:29:10;;;;;;;44.85;30.17;;;12.90;73.50;;;;;;5057036;28;20044;-80
2022/03/26 09:31:36;;;;;;;47.20;32.47;;;13.00;73.50;;;;;;5073262;28;20098;-81
2022/03/26 09:34:01;;;;;;;53.42;35.55;;;13.10;73.40;;;;;;5056547;28;20052;-81
2022/03/26 09:36:27;;;;;;;52.17;34.90;;;13.20;73.50;;;;;;5073396;28;20501;-81
2022/03/26 09:38:53;;;;;;;48.65;33.63;;;13.30;73.60;;;;;;5073107;28;20055;-81
2022/03/26 09:41:25;;;;;;;48.20;31.60;;;13.30;73.60;;;;;;5039869;28;20041;-81
2022/03/26 09:43:52;;;;;;;48.38;32.33;;;13.50;73.40;;;;;;5072975;28;20039;-81
2022/03/26 09:46:18;;;;;;;41.75;28.33;;;13.50;73.10;;;;;;5072919;28;20044;-81
2022/03/26 09:48:44;;;;;;;42.90;30.35;;;13.60;72.80;;;;;;5073122;28;20093;-80
2022/03/26 09:51:15;;;;;;;36.65;27.75;;;13.70;72.40;;;;;;5055232;28;20044;-81
2022/03/26 09:53:41;;;;;;;45.35;31.20;;;13.80;72.20;;;;;;5056467;28;20073;-81
2022/03/26 09:56:07;;;;;;;42.65;28.80;;;13.80;71.60;;;;;;5072706;28;20526;-81
2022/03/26 09:58:33;;;;;;;35.38;23.88;;;13.90;71.80;;;;;;5056342;28;20044;-81
2022/03/26 10:00:59;;;;;;;39.22;26.23;;;14.00;70.80;;;;;;5072610;28;20129;-81
2022/03/26 10:03:28;;;;;;;36.47;23.38;;;14.10;69.90;;;;;;5056000;28;20037;-81
2022/03/26 10:06:04;;;;;;;32.92;24.17;;;14.20;70.20;;;;;;5072599;28;20044;-81
2022/03/26 10:08:34;;;;;;;29.63;21.50;;;14.30;69.60;;;;;;5038660;28;20129;-80
2022/03/26 10:11:01;;;;;;;29.52;20.48;;;14.40;69.20;;;;;;5072759;28;20043;-81
2022/03/26 10:13:46;;;;;;;31.02;21.75;;;14.50;69.10;;;;;;5072504;28;20050;-81
2022/03/26 10:16:14;;;;;;;27.52;18.83;;;14.60;68.40;;;;;;5072917;28;20043;-80
2022/03/26 10:18:45;;;;;;;28.13;20.25;;;14.70;67.20;;;;;;5073780;28;20125;-80
2022/03/26 10:21:14;;;;;;;24.60;17.35;;;14.80;66.90;;;;;;5056177;28;20037;-81
2022/03/26 10:23:45;;;;;;;22.40;15.80;;;14.90;66.10;;;;;;5072440;28;20040;-80
2022/03/26 10:26:16;;;;;;;17.10;13.55;;;15.00;65.10;;;;;;5055941;28;20040;-80
2022/03/26 10:28:43;;;;;;;19.58;13.18;;;15.00;64.20;;;;;;5055887;28;20081;-81
2022/03/26 10:34:11;;;;;;;16.27;12.43;;;15.30;63.60;;;;;;5071354;28;20048;-80
2022/03/26 10:36:58;;;;;;;18.77;12.27;;;15.40;62.80;;;;;;5040303;28;20047;-80
2022/03/26 10:39:28;;;;;;;18.88;12.95;;;15.50;62.90;;;;;;5071901;28;20048;-80
2022/03/26 10:41:55;;;;;;;20.42;14.23;;;15.50;62.70;;;;;;5038717;28;20043;-80
2022/03/26 10:44:26;;;;;;;22.42;13.10;;;15.70;62.30;;;;;;5055763;28;20056;-81
2022/03/26 10:47:00;;;;;;;19.00;12.38;;;15.70;62.50;;;;;;5072056;28;20059;-80
2022/03/26 10:49:37;;;;;;;14.77;11.32;;;15.80;62.00;;;;;;5055463;28;20400;-80
2022/03/26 10:52:05;;;;;;;18.55;12.10;;;16.00;62.30;;;;;;5071811;28;20050;-81
2022/03/26 10:54:33;;;;;;;17.17;11.82;;;16.00;60.40;;;;;;5071871;28;20045;-81
2022/03/26 10:57:01;;;;;;;16.30;9.30;;;16.00;60.30;;;;;;5054246;28;20056;-81
2022/03/26 10:59:28;;;;;;;14.43;9.40;;;16.10;59.70;;;;;;5055608;28;20477;-81
2022/03/26 11:01:54;;;;;;;13.30;8.98;;;16.20;59.70;;;;;;5055013;28;20036;-81
2022/03/26 11:04:21;;;;;;;16.08;9.73;;;16.20;59.00;;;;;;5022482;28;20378;-80
2022/03/26 11:06:50;;;;;;;13.57;9.27;;;16.30;59.10;;;;;;5055293;28;20508;-80
2022/03/26 11:09:17;;;;;;;14.55;8.55;;;16.40;59.60;;;;;;5055535;28;20535;-81
2022/03/26 11:11:47;;;;;;;14.70;9.13;;;16.50;58.70;;;;;;5055305;28;20090;-81
2022/03/26 11:14:37;;;;;;;12.02;8.20;;;16.60;58.40;;;;;;5055216;28;20045;-81
2022/03/26 11:17:32;;;;;;;11.63;6.63;;;16.80;57.90;;;;;;5071709;28;20040;-80
2022/03/26 11:20:13;;;;;;;10.27;6.97;;;16.80;56.90;;;;;;5071715;28;20426;-80
2022/03/26 11:23:03;;;;;;;13.93;7.72;;;16.80;56.70;;;;;;5054903;28;20480;-80
2022/03/26 11:25:53;;;;;;;9.23;6.80;;;16.70;56.90;;;;;;5055039;28;20419;-80
2022/03/26 11:28:58;;;;;;;10.15;7.85;;;16.80;56.50;;;;;;5071577;28;20051;-81
2022/03/26 11:31:48;;;;;;;12.23;7.90;;;16.80;56.40;;;;;;5071502;28;20119;-81
2022/03/26 11:34:18;;;;;;;11.73;8.32;;;16.90;56.70;;;;;;5071331;28;20480;-81
2022/03/26 11:36:43;;;;;;;11.38;7.05;;;17.00;56.80;;;;;;5071251;28;20052;-81
2022/03/26 11:39:14;;;;;;;9.50;6.57;;;17.00;56.40;;;;;;5054848;28;20401;-81
2022/03/26 11:41:41;;;;;;;8.63;6.18;;;17.10;55.30;;;;;;5071312;28;20044;-81
2022/03/26 11:44:09;;;;;;;8.68;6.38;;;17.20;54.90;;;;;;5071582;28;20385;-82
2022/03/26 11:52:28;;;;;;;11.90;7.25;;;17.50;54.70;;;;;;5071540;28;20492;-81
2022/03/26 11:55:15;;;;;;;11.18;6.97;;;17.60;54.60;;;;;;5054660;28;20040;-81
2022/03/26 11:57:41;;;;;;;9.60;6.82;;;17.70;54.30;;;;;;5057706;28;20045;-81
2022/03/26 12:00:18;;;;;;;7.18;5.53;;;17.90;54.30;;;;;;5054517;28;20123;-82
2022/03/26 12:02:51;;;;;;;10.10;5.90;;;17.90;53.10;;;;;;5054447;28;20036;-81
2022/03/26 12:08:18;;;;;;;8.13;5.40;;;18.00;52.90;;;;;;5071456;28;20040;-81
2022/03/26 12:10:45;;;;;;;9.23;5.72;;;17.90;53.20;;;;;;5071437;28;20036;-82
2022/03/26 12:13:19;;;;;;;8.13;5.82;;;17.90;54.10;;;;;;5071387;28;20530;-81
2022/03/26 12:16:01;;;;;;;7.55;5.22;;;17.90;52.80;;;;;;5074034;28;20043;-81
2022/03/26 12:18:35;;;;;;;9.05;5.32;;;17.90;54.10;;;;;;5058424;28;20102;-81
2022/03/26 12:21:09;;;;;;;6.78;4.53;;;18.00;54.40;;;;;;5058489;28;20511;-81
2022/03/26 12:23:35;;;;;;;;;;;18.00;53.80;;;;;;5075369;28;20071;-81
2022/03/26 12:26:07;;;;;;;8.50;4.28;;;18.00;53.00;;;;;;5058232;28;19923;-81
2022/03/26 12:28:41;;;;;;;6.90;4.78;;;18.00;52.60;;;;;;5074488;28;20506;-81
2022/03/26 12:31:13;;;;;;;7.15;5.93;;;18.00;52.40;;;;;;5074520;28;20072;-81
2022/03/26 12:33:41;;;;;;;7.85;5.80;;;18.00;51.60;;;;;;5074152;28;20547;-81
2022/03/26 12:36:07;;;;;;;7.90;5.40;;;18.00;51.90;;;;;;5041304;28;20044;-81
2022/03/26 12:38:34;;;;;;;8.82;6.00;;;18.00;52.80;;;;;;5040968;28;20040;-81
2022/03/26 12:41:03;;;;;;;6.30;5.22;;;18.10;52.90;;;;;;5057637;28;20041;-80
2022/03/26 12:43:29;;;;;;;8.45;5.25;;;18.00;53.60;;;;;;5074347;28;20484;-81